createdAt,value
2018-05-29T07:23:11.835Z,38.90
2018-05-29T07:25:45.744Z,38.40
2018-05-29T07:28:19.676Z,38.50
2018-05-29T07:30:53.580Z,37.30
2018-05-29T07:33:27.548Z,37.30
2018-05-29T07:36:02.224Z,37.70
2018-05-29T07:38:36.461Z,37.70
2018-05-29T07:41:15.762Z,37.30
2018-05-29T07:43:49.912Z,37.40
2018-05-29T07:46:24.780Z,37.30
2018-05-29T07:48:58.742Z,37.40
2018-05-29T07:51:32.665Z,38.90
2018-05-29T07:54:07.375Z,36.40
2018-05-29T07:56:41.279Z,36.40
2018-05-29T07:59:15.241Z,36.00
2018-05-29T08:01:49.152Z,36.00
2018-05-29T08:04:24.053Z,36.80
2018-05-29T08:06:57.961Z,36.10
2018-05-29T08:09:32.678Z,35.00
2018-05-29T08:12:07.354Z,33.60
2018-05-29T08:14:41.304Z,33.70
2018-05-29T08:17:16.947Z,36.30
2018-05-29T08:19:51.720Z,36.00
2018-05-29T08:22:29.518Z,35.90
2018-05-29T08:25:06.330Z,39.20
2018-05-29T08:27:41.191Z,38.50
2018-05-29T08:30:17.167Z,38.40
2018-05-29T08:32:51.204Z,39.60
2018-05-29T08:38:07.644Z,39.90
2018-05-29T08:40:41.749Z,39.60
2018-05-29T08:43:17.548Z,39.00
2018-05-29T08:45:56.575Z,38.80
2018-05-29T08:51:32.932Z,39.20
2018-05-29T08:54:10.671Z,40.00
2018-05-29T08:56:45.656Z,39.00
2018-05-29T08:59:27.448Z,37.20
2018-05-29T09:02:04.663Z,38.40
2018-05-29T09:04:39.791Z,38.30
2018-05-29T09:07:20.595Z,37.80
2018-05-29T09:09:54.770Z,38.50
2018-05-29T09:12:31.814Z,40.00
2018-05-29T09:15:07.524Z,38.80
2018-05-29T09:17:46.983Z,39.50
2018-05-29T09:20:22.778Z,40.20
2018-05-29T09:22:57.006Z,38.50
2018-05-29T09:25:33.921Z,37.90
2018-05-29T09:28:12.332Z,37.30
2018-05-29T09:30:52.032Z,36.90
2018-05-29T09:33:29.916Z,36.60
2018-05-29T09:36:07.874Z,36.60
2018-05-29T09:38:54.992Z,36.10
2018-05-29T09:41:29.994Z,36.80
2018-05-29T09:44:04.919Z,36.70
2018-05-29T09:46:39.832Z,36.40
2018-05-29T09:49:14.505Z,37.00
2018-05-29T09:51:49.469Z,37.00
2018-05-29T09:54:23.411Z,38.70
2018-05-29T09:56:57.361Z,37.10
2018-05-29T09:59:31.324Z,38.00
2018-05-29T10:02:05.146Z,36.10
2018-05-29T10:04:39.061Z,37.20
2018-05-29T10:07:14.027Z,37.70
2018-05-29T10:09:48.347Z,36.80
2018-05-29T10:12:23.545Z,36.30
2018-05-29T10:14:57.488Z,36.70
2018-05-29T10:17:31.401Z,37.80
2018-05-29T10:20:05.379Z,36.70
2018-05-29T10:22:40.291Z,34.80
2018-05-29T10:25:14.208Z,36.30
2018-05-29T10:27:49.133Z,36.90
2018-05-29T10:30:23.045Z,34.10
2018-05-29T10:32:57.992Z,34.50
2018-05-29T10:35:31.920Z,36.60
2018-05-29T10:38:05.879Z,37.00
2018-05-29T10:40:39.828Z,37.40
2018-05-29T10:43:13.740Z,37.70
2018-05-29T10:45:47.675Z,37.90
2018-05-29T10:48:23.630Z,38.50
2018-05-29T10:50:59.307Z,37.10
2018-05-29T10:53:53.945Z,37.70
2018-05-29T10:56:38.145Z,35.30
2018-05-29T10:59:15.027Z,35.90
2018-05-29T11:01:53.681Z,35.90
2018-05-29T11:04:29.332Z,36.40
2018-05-29T11:07:04.483Z,36.50
2018-05-29T11:09:43.023Z,37.00
2018-05-29T11:15:46.091Z,37.30
2018-05-29T11:21:18.958Z,38.30
2018-05-29T11:24:04.358Z,35.40
2018-05-29T11:40:47.078Z,37.50
2018-05-29T11:43:34.141Z,36.90
2018-05-29T11:52:01.038Z,36.90
2018-05-29T11:54:38.813Z,36.60
2018-05-29T11:57:16.745Z,36.40
2018-05-29T11:59:59.322Z,35.90
2018-05-29T12:02:36.201Z,36.10
2018-05-29T12:05:09.923Z,35.20
2018-05-29T12:07:52.028Z,35.70
2018-05-29T12:10:26.828Z,36.20
2018-05-29T12:13:01.795Z,36.00
2018-05-29T12:15:35.706Z,36.80
2018-05-29T12:18:09.660Z,38.00
2018-05-29T12:20:43.573Z,36.40
2018-05-29T12:23:18.511Z,38.20
2018-05-29T12:25:52.423Z,37.70
2018-05-29T12:28:27.327Z,35.20
2018-05-29T12:31:01.258Z,36.50
2018-05-29T12:33:35.207Z,37.00
2018-05-29T12:36:09.134Z,35.20
2018-05-29T12:38:43.850Z,36.10
2018-05-29T12:41:17.759Z,36.10
2018-05-29T12:43:51.713Z,36.80
2018-05-29T12:46:25.740Z,37.30
2018-05-29T12:48:59.775Z,36.70
2018-05-29T12:51:33.678Z,37.50
2018-05-29T12:54:07.631Z,38.10
2018-05-29T12:56:41.535Z,38.00
2018-05-29T12:59:15.488Z,37.20
2018-05-29T13:01:49.392Z,37.30
2018-05-29T13:04:23.331Z,36.60
2018-05-29T13:06:57.230Z,36.60
2018-05-29T13:09:31.176Z,37.20
2018-05-29T13:12:05.136Z,37.00
2018-05-29T13:14:39.091Z,36.90
2018-05-29T13:17:13.033Z,37.70
2018-05-29T13:19:46.993Z,37.30
2018-05-29T13:22:22.344Z,38.70
2018-05-29T13:24:57.242Z,38.70
2018-05-29T13:27:31.150Z,37.90
2018-05-29T13:30:05.455Z,36.50
2018-05-29T13:32:39.426Z,37.10
2018-05-29T13:35:14.344Z,36.70
2018-05-29T13:37:48.441Z,36.70
2018-05-29T13:40:22.393Z,36.90
2018-05-29T13:42:56.499Z,36.30
2018-05-29T13:45:30.446Z,36.80
2018-05-29T13:48:05.126Z,37.90
2018-05-29T13:50:39.074Z,37.30
2018-05-29T13:53:13.937Z,36.90
2018-05-29T13:55:48.848Z,38.20
2018-05-29T13:58:23.525Z,37.80
2018-05-29T14:00:57.145Z,37.80
2018-05-29T14:03:31.064Z,37.50
2018-05-29T14:06:05.036Z,36.40
2018-05-29T14:08:39.713Z,36.80
2018-05-29T14:11:15.402Z,36.00
2018-05-29T14:13:50.307Z,35.90
2018-05-29T14:16:24.256Z,35.90
2018-05-29T14:18:59.147Z,35.60
2018-05-29T14:21:33.126Z,36.30
2018-05-29T14:24:07.802Z,37.80
2018-05-29T14:26:42.720Z,37.20
2018-05-29T14:29:16.675Z,36.90
2018-05-29T14:31:50.790Z,37.00
2018-05-29T14:34:25.677Z,38.30
2018-05-29T14:36:59.629Z,39.40
2018-05-29T14:39:33.537Z,38.90
2018-05-29T14:42:07.482Z,39.60
2018-05-29T14:44:41.392Z,39.90
2018-05-29T14:47:15.336Z,39.70
2018-05-29T14:49:49.251Z,40.30
2018-05-29T14:52:23.224Z,41.40
2018-05-29T14:54:57.144Z,41.30
2018-05-29T14:57:31.388Z,41.80
2018-05-29T15:00:05.357Z,41.40
2018-05-29T15:02:39.312Z,41.90
2018-05-29T15:05:13.520Z,40.80
2018-05-29T15:07:47.463Z,41.30
2018-05-29T15:10:21.652Z,42.20
2018-05-29T15:12:55.889Z,42.10
2018-05-29T15:15:29.805Z,41.90
2018-05-29T15:18:04.037Z,42.40
2018-05-29T15:20:39.204Z,41.60
2018-05-29T15:23:13.443Z,41.80
2018-05-29T15:25:47.640Z,42.70
2018-05-29T15:28:22.843Z,42.40
2018-05-29T15:30:58.056Z,42.90
2018-05-29T15:33:32.293Z,42.40
2018-05-29T15:36:07.444Z,42.90
2018-05-29T15:38:41.700Z,42.60
2018-05-29T15:41:15.894Z,42.90
2018-05-29T15:43:50.145Z,43.80
2018-05-29T15:46:25.108Z,43.60
2018-05-29T15:48:59.353Z,43.60
2018-05-29T15:51:33.569Z,43.40
2018-05-29T15:54:08.796Z,43.00
2018-05-29T15:56:43.000Z,43.50
2018-05-29T15:59:17.241Z,43.40
2018-05-29T16:01:51.438Z,43.60
2018-05-29T16:04:25.671Z,43.40
2018-05-29T16:07:00.826Z,43.30
2018-05-29T16:09:35.062Z,43.70
2018-05-29T16:12:09.268Z,43.60
2018-05-29T16:14:45.254Z,43.30
2018-05-29T16:17:20.426Z,43.30
2018-05-29T16:19:54.678Z,42.80
2018-05-29T16:22:29.654Z,43.50
2018-05-29T16:25:05.655Z,43.60
2018-05-29T16:27:40.622Z,43.80
2018-05-29T16:30:15.844Z,43.80
2018-05-29T16:32:50.055Z,44.20
2018-05-29T16:35:26.223Z,44.20
2018-05-29T16:38:00.421Z,44.20
2018-05-29T16:40:35.155Z,44.00
2018-05-29T16:43:09.523Z,43.90
2018-05-29T16:45:43.778Z,44.20
2018-05-29T16:48:18.744Z,44.70
2018-05-29T16:50:53.936Z,44.60
2018-05-29T16:53:29.173Z,45.10
2018-05-29T16:56:05.459Z,44.10
2018-05-29T16:58:40.672Z,44.10
2018-05-29T17:01:15.832Z,45.10
2018-05-29T17:03:50.030Z,44.40
2018-05-29T17:06:26.009Z,44.30
2018-05-29T17:09:00.219Z,44.30
2018-05-29T17:11:34.468Z,44.50
2018-05-29T17:14:09.644Z,45.00
2018-05-29T17:16:45.633Z,44.50
2018-05-29T17:19:19.859Z,44.50
2018-05-29T17:21:54.117Z,44.40
2018-05-29T17:24:29.287Z,44.80
2018-05-29T17:27:03.519Z,45.50
2018-05-29T17:29:39.336Z,44.60
2018-05-29T17:32:14.548Z,45.10
2018-05-29T17:34:48.789Z,45.70
2018-05-29T17:37:23.483Z,46.60
2018-05-29T17:39:57.704Z,46.50
2018-05-29T17:42:31.965Z,47.10
2018-05-29T17:45:05.555Z,47.00
2018-05-29T17:47:39.961Z,45.40
2018-05-29T17:50:15.923Z,46.30
2018-05-29T17:52:50.160Z,46.20
2018-05-29T17:58:06.020Z,46.70
2018-05-29T18:00:41.004Z,47.70
2018-05-29T18:03:16.223Z,47.60
2018-05-29T18:05:50.429Z,47.90
2018-05-29T18:08:24.664Z,48.20
2018-05-29T18:10:58.883Z,48.30
2018-05-29T18:13:33.134Z,48.10
2018-05-29T18:16:07.333Z,48.50
2018-05-29T18:18:41.578Z,49.00
2018-05-29T18:21:16.552Z,49.50
2018-05-29T18:23:56.365Z,48.70
2018-05-29T18:26:31.952Z,49.20
2018-05-29T18:29:07.241Z,49.50
2018-05-29T18:31:41.887Z,50.20
2018-05-29T18:34:16.135Z,50.20
2018-05-29T18:36:51.303Z,50.70
2018-05-29T18:39:26.513Z,51.30
2018-05-29T18:42:06.348Z,52.70
2018-05-29T18:44:40.749Z,51.90
2018-05-29T18:47:16.101Z,51.50
2018-05-29T18:49:52.614Z,51.70
2018-05-29T18:52:29.038Z,51.70
2018-05-29T18:55:03.709Z,51.80
2018-05-29T18:57:39.446Z,51.70
2018-05-29T19:00:14.285Z,51.80
2018-05-29T19:02:50.717Z,52.50
2018-05-29T19:05:28.031Z,52.80
2018-05-29T19:08:02.317Z,53.40
2018-05-29T19:10:36.524Z,53.30
2018-05-29T19:13:10.982Z,53.10
2018-05-29T19:15:45.959Z,53.70
2018-05-29T19:18:21.959Z,54.50
2018-05-29T19:20:56.173Z,54.40
2018-05-29T19:23:30.407Z,55.40
2018-05-29T19:26:05.375Z,56.60
2018-05-29T19:28:39.617Z,56.10
2018-05-29T19:31:13.816Z,56.10
2018-05-29T19:33:48.067Z,56.00
2018-05-29T19:36:23.709Z,56.10
2018-05-29T19:38:57.988Z,56.60
2018-05-29T19:41:32.958Z,56.80
2018-05-29T19:44:08.151Z,56.80
2018-05-29T19:46:42.348Z,57.10
2018-05-29T19:49:16.583Z,57.40
2018-05-29T19:51:50.779Z,57.40
2018-05-29T19:54:25.047Z,57.70
2018-05-29T19:57:00.215Z,58.10
2018-05-29T19:59:35.272Z,58.80
2018-05-29T20:02:09.473Z,58.80
2018-05-29T20:04:43.708Z,59.30
2018-05-29T20:07:17.931Z,59.70
2018-05-29T20:09:53.150Z,60.30
2018-05-29T20:12:27.346Z,60.60
2018-05-29T20:15:02.344Z,61.30
2018-05-29T20:17:36.619Z,61.30
2018-05-29T20:20:11.677Z,61.60
2018-05-29T20:22:46.783Z,62.10
2018-05-29T20:28:05.493Z,62.90
2018-05-29T20:30:42.807Z,62.70
2018-05-29T20:36:14.693Z,64.20
2018-05-29T20:38:59.326Z,63.90
2018-05-29T20:41:45.385Z,64.20
2018-05-29T20:44:25.465Z,64.10
2018-05-29T20:47:00.820Z,65.10
2018-05-29T20:49:35.053Z,66.20
2018-05-29T20:52:10.268Z,65.90
2018-05-29T20:54:44.469Z,66.20
2018-05-29T20:57:18.710Z,66.50
2018-05-29T20:59:54.216Z,67.20
2018-05-29T21:02:32.138Z,67.10
2018-05-29T21:05:06.420Z,67.60
2018-05-29T21:07:40.628Z,68.10
2018-05-29T21:10:15.825Z,68.40
2018-05-29T21:12:50.884Z,68.90
2018-05-29T21:15:25.141Z,68.90
2018-05-29T21:17:59.336Z,68.80
2018-05-29T21:20:33.572Z,69.20
2018-05-29T21:23:07.771Z,69.30
2018-05-29T21:25:42.016Z,70.10
2018-05-29T21:28:16.997Z,70.80
2018-05-29T21:30:51.416Z,70.80
2018-05-29T21:33:25.608Z,71.50
2018-05-29T21:35:59.851Z,72.00
2018-05-29T21:38:42.784Z,72.80
2018-05-29T21:41:18.619Z,73.30
2018-05-29T21:43:53.942Z,74.00
2018-05-29T21:46:34.384Z,74.70
2018-05-29T21:49:11.861Z,75.90
2018-05-29T21:51:47.838Z,77.50
2018-05-29T21:54:35.527Z,77.90
2018-05-29T21:57:10.848Z,78.50
2018-05-29T21:59:45.045Z,80.40
2018-05-29T22:02:20.668Z,80.90
2018-05-29T22:04:54.865Z,82.10
2018-05-29T22:07:32.169Z,84.60
2018-05-29T22:13:06.111Z,85.80
2018-05-29T22:15:44.653Z,87.10
2018-05-29T22:18:22.389Z,88.20
2018-05-29T22:20:56.674Z,89.20
2018-05-29T22:23:34.210Z,90.20
2018-05-29T22:26:12.823Z,90.60
2018-05-29T22:28:48.015Z,91.00
2018-05-29T22:31:27.628Z,91.40
2018-05-29T22:34:04.906Z,91.70
2018-05-29T22:36:39.694Z,92.20
2018-05-29T22:39:16.854Z,92.50
2018-05-29T22:41:54.384Z,92.80
2018-05-29T22:44:28.597Z,93.10
2018-05-29T22:47:04.085Z,93.50
2018-05-29T22:49:43.496Z,94.00
2018-05-29T22:52:17.753Z,94.20
2018-05-29T22:54:53.480Z,94.70
2018-05-29T22:57:27.866Z,95.20
2018-05-29T23:00:03.730Z,95.60
2018-05-29T23:02:39.016Z,95.80
2018-05-29T23:05:18.963Z,96.20
2018-05-29T23:07:54.832Z,96.40
2018-05-29T23:10:30.855Z,96.60
2018-05-29T23:13:05.630Z,96.60
2018-05-29T23:15:39.862Z,96.50
2018-05-29T23:18:15.794Z,96.60
2018-05-29T23:20:51.002Z,96.60
2018-05-29T23:23:25.203Z,96.60
2018-05-29T23:25:59.441Z,96.40
2018-05-29T23:28:33.641Z,96.30
2018-05-29T23:31:07.879Z,96.50
2018-05-29T23:33:42.849Z,96.80
2018-05-29T23:36:17.093Z,96.70
2018-05-29T23:38:51.293Z,96.80
2018-05-29T23:41:25.519Z,97.20
2018-05-29T23:43:59.716Z,97.60
2018-05-29T23:46:33.941Z,98.00
2018-05-29T23:49:08.122Z,98.40
2018-05-29T23:51:42.361Z,98.80
2018-05-29T23:54:16.558Z,99.00
2018-05-29T23:56:51.773Z,99.30
2018-05-29T23:59:25.968Z,99.80
